Time;durP1;ratioP1;P1;durP2;ratioP2;P2;SDS_P1;SDS_P2;PMS_P1;PMS_P2;Temp;Humidity;BMP_temperature;BMP_pressure;BME280_temperature;BME280_humidity;BME280_pressure;Samples;Min_cycle;Max_cycle;Signal;HPM_P1;HPM_P2
2022/05/31 00:02:23;;;;;;;0.40;0.40;;;10.30;99.90;;;;;;5032815;28;20436;-68
2022/05/31 00:05:12;;;;;;;0.40;0.40;;;10.40;99.90;;;;;;5032672;28;20425;-68
2022/05/31 00:08:02;;;;;;;0.40;0.40;;;10.30;99.90;;;;;;5031939;28;20424;-67
2022/05/31 00:10:51;;;;;;;0.40;0.40;;;10.30;99.90;;;;;;5032198;28;20460;-68
2022/05/31 00:13:40;;;;;;;0.40;0.40;;;10.40;99.90;;;;;;5031864;28;20433;-68
2022/05/31 00:16:28;;;;;;;0.40;0.40;;;10.30;99.90;;;;;;5031516;28;20425;-68
2022/05/31 00:19:18;;;;;;;0.50;0.50;;;10.30;99.90;;;;;;5031472;28;20996;-68
2022/05/31 00:22:10;;;;;;;0.40;0.40;;;10.30;99.90;;;;;;5031731;28;20425;-68
2022/05/31 00:25:00;;;;;;;0.40;0.40;;;10.30;99.90;;;;;;5032214;28;20447;-68
2022/05/31 00:27:48;;;;;;;0.40;0.40;;;10.20;99.90;;;;;;5031836;28;20421;-68
2022/05/31 00:30:38;;;;;;;0.40;0.40;;;10.30;99.90;;;;;;5031771;28;20441;-67
2022/05/31 00:33:27;;;;;;;0.90;0.90;;;10.20;99.90;;;;;;5031861;28;20425;-68
2022/05/31 00:36:16;;;;;;;0.40;0.40;;;10.30;99.90;;;;;;5031311;28;20444;-67
2022/05/31 00:39:04;;;;;;;0.40;0.40;;;10.30;99.90;;;;;;5032082;28;20453;-69
2022/05/31 00:42:05;;;;;;;0.40;0.40;;;10.30;99.90;;;;;;5032294;28;20441;-67
2022/05/31 00:44:53;;;;;;;0.40;0.40;;;10.30;99.90;;;;;;5032026;28;20448;-68
2022/05/31 00:47:41;;;;;;;0.40;0.40;;;10.30;99.90;;;;;;5032237;28;20428;-68
2022/05/31 00:50:33;;;;;;;0.40;0.40;;;10.30;99.90;;;;;;5032360;28;20555;-68
2022/05/31 00:53:25;;;;;;;0.40;0.40;;;10.40;99.90;;;;;;5036011;28;20432;-68
2022/05/31 00:56:17;;;;;;;0.40;0.40;;;10.30;99.90;;;;;;5035691;28;20421;-68
2022/05/31 00:59:18;;;;;;;0.50;0.50;;;10.30;99.90;;;;;;5040431;28;20457;-68
2022/05/31 01:10:22;;;;;;;0.40;0.40;;;10.30;99.90;;;;;;5019704;28;20425;-69
2022/05/31 01:13:11;;;;;;;0.50;0.50;;;10.30;99.90;;;;;;4995944;28;20434;-68
2022/05/31 01:16:06;;;;;;;0.40;0.40;;;10.30;99.90;;;;;;4995322;28;20443;-68
2022/05/31 01:18:55;;;;;;;0.40;0.40;;;10.20;99.90;;;;;;4995648;28;20613;-69
2022/05/31 01:21:44;;;;;;;2.87;2.77;;;10.20;99.90;;;;;;4995859;28;20490;-69
2022/05/31 01:24:40;;;;;;;0.40;0.40;;;10.10;99.90;;;;;;4995375;28;20427;-68
2022/05/31 01:27:37;;;;;;;0.40;0.40;;;10.10;99.90;;;;;;4995462;28;20907;-69
2022/05/31 01:30:27;;;;;;;0.40;0.40;;;10.00;99.90;;;;;;4995910;28;20442;-68
2022/05/31 01:33:23;;;;;;;0.40;0.40;;;9.90;99.90;;;;;;4995495;28;20481;-67
2022/05/31 01:36:14;;;;;;;0.40;0.40;;;9.80;99.90;;;;;;4994748;28;20431;-68
2022/05/31 01:39:06;;;;;;;0.40;0.40;;;9.80;99.90;;;;;;4995118;28;20550;-68
2022/05/31 01:41:58;;;;;;;0.40;0.40;;;9.70;99.90;;;;;;4994922;28;20451;-68
2022/05/31 01:44:49;;;;;;;0.40;0.40;;;9.60;99.90;;;;;;4994872;28;20861;-68
2022/05/31 01:47:37;;;;;;;0.40;0.40;;;9.50;99.90;;;;;;4994446;28;20517;-68
2022/05/31 01:50:26;;;;;;;0.40;0.40;;;9.40;99.90;;;;;;4994554;28;20435;-68
2022/05/31 01:53:16;;;;;;;0.40;0.40;;;9.30;99.90;;;;;;4994923;28;20478;-69
2022/05/31 01:56:07;;;;;;;0.40;0.40;;;9.20;99.90;;;;;;4994117;28;20431;-69
2022/05/31 01:58:55;;;;;;;0.40;0.40;;;9.10;99.90;;;;;;4994457;28;20423;-69
2022/05/31 02:01:48;;;;;;;0.43;0.43;;;9.00;99.90;;;;;;4993636;28;20451;-68
2022/05/31 02:04:36;;;;;;;0.50;0.50;;;9.00;99.90;;;;;;4994184;28;20848;-68
2022/05/31 02:07:26;;;;;;;0.50;0.50;;;8.80;99.90;;;;;;4993760;28;20557;-69
2022/05/31 02:10:14;;;;;;;0.40;0.40;;;8.80;99.90;;;;;;4994246;28;20477;-68
2022/05/31 02:13:04;;;;;;;0.40;0.40;;;8.70;99.90;;;;;;4994349;28;20501;-68
2022/05/31 02:15:53;;;;;;;0.50;0.50;;;8.60;99.90;;;;;;4994525;28;20974;-68
2022/05/31 02:21:47;;;;;;;0.40;0.40;;;8.50;99.90;;;;;;4994508;28;20447;-68
2022/05/31 02:24:35;;;;;;;0.40;0.40;;;8.50;99.90;;;;;;4994896;28;20490;-68
2022/05/31 02:27:24;;;;;;;0.40;0.40;;;8.40;99.90;;;;;;4993819;28;20791;-67
2022/05/31 02:30:14;;;;;;;0.40;0.40;;;8.40;99.90;;;;;;4993954;28;20533;-68
2022/05/31 02:33:02;;;;;;;0.43;0.43;;;8.40;99.90;;;;;;4994004;28;20481;-69
2022/05/31 02:35:50;;;;;;;0.40;0.40;;;8.30;99.90;;;;;;4993171;28;20431;-69
2022/05/31 02:38:38;;;;;;;0.40;0.40;;;8.30;99.90;;;;;;4994246;28;20507;-69
2022/05/31 02:41:29;;;;;;;0.40;0.40;;;8.30;99.90;;;;;;4993292;28;20471;-68
2022/05/31 02:44:17;;;;;;;0.50;0.50;;;8.30;99.90;;;;;;4994247;28;20459;-69
2022/05/31 02:47:08;;;;;;;0.40;0.40;;;8.30;99.90;;;;;;4994155;28;20431;-68
2022/05/31 02:49:56;;;;;;;0.40;0.40;;;8.30;99.90;;;;;;4993725;28;20447;-68
2022/05/31 02:52:44;;;;;;;0.40;0.40;;;8.30;99.90;;;;;;4993811;28;20569;-68
2022/05/31 02:55:32;;;;;;;0.40;0.40;;;8.40;99.90;;;;;;5042967;23;20493;-66
2022/05/31 02:58:21;;;;;;;0.40;0.40;;;8.40;99.90;;;;;;5025179;28;20460;-66
2022/05/31 03:01:20;;;;;;;0.40;0.40;;;8.40;99.90;;;;;;5022630;28;20466;-65
2022/05/31 03:04:11;;;;;;;0.40;0.40;;;8.40;99.90;;;;;;5019621;28;20441;-65
2022/05/31 03:07:03;;;;;;;0.40;0.40;;;8.50;99.90;;;;;;5018475;28;20422;-66
2022/05/31 03:09:51;;;;;;;0.40;0.40;;;8.40;99.90;;;;;;5017376;28;20433;-66
2022/05/31 03:12:39;;;;;;;0.40;0.40;;;8.60;99.90;;;;;;5014822;28;20422;-65
2022/05/31 03:15:29;;;;;;;0.40;0.40;;;8.00;99.90;;;;;;5013719;28;20537;-65
2022/05/31 03:18:21;;;;;;;0.40;0.40;;;8.50;99.90;;;;;;5013342;28;20437;-65
2022/05/31 03:21:16;;;;;;;0.40;0.40;;;8.50;99.90;;;;;;5012503;28;20466;-65
2022/05/31 03:24:12;;;;;;;0.40;0.40;;;8.50;99.90;;;;;;5012541;28;20526;-65
2022/05/31 03:27:03;;;;;;;0.40;0.40;;;8.50;99.90;;;;;;5012684;28;20433;-65
2022/05/31 03:29:53;;;;;;;0.40;0.40;;;8.50;99.90;;;;;;5012070;28;20472;-65
2022/05/31 03:32:42;;;;;;;0.40;0.40;;;8.60;99.90;;;;;;5013269;28;20550;-66
2022/05/31 03:35:30;;;;;;;0.40;0.40;;;8.60;99.90;;;;;;5013429;28;20457;-65
2022/05/31 03:38:20;;;;;;;0.40;0.40;;;8.60;99.90;;;;;;5013350;28;20422;-66
2022/05/31 03:41:08;;;;;;;0.40;0.40;;;8.60;99.90;;;;;;5013823;28;20473;-65
2022/05/31 03:43:56;;;;;;;0.40;0.40;;;8.60;99.90;;;;;;5012769;28;20450;-65
2022/05/31 03:46:47;;;;;;;0.40;0.40;;;8.60;99.90;;;;;;5012699;28;20983;-65
2022/05/31 03:49:35;;;;;;;0.40;0.40;;;8.60;99.90;;;;;;5011903;28;20429;-65
2022/05/31 03:52:23;;;;;;;0.40;0.40;;;8.60;99.90;;;;;;5011829;28;20434;-65
2022/05/31 03:55:13;;;;;;;0.40;0.40;;;8.60;99.90;;;;;;5012226;28;20462;-65
2022/05/31 03:58:01;;;;;;;0.40;0.40;;;8.60;99.90;;;;;;5011787;28;20848;-65
2022/05/31 04:00:49;;;;;;;0.40;0.40;;;8.70;99.90;;;;;;5012145;28;20473;-65
2022/05/31 04:03:37;;;;;;;0.40;0.40;;;8.80;99.90;;;;;;5012505;28;20426;-65
2022/05/31 04:06:25;;;;;;;0.40;0.40;;;8.80;99.90;;;;;;5012560;28;20504;-65
2022/05/31 04:09:14;;;;;;;0.40;0.40;;;8.90;99.90;;;;;;5012068;28;21061;-65
2022/05/31 04:12:04;;;;;;;0.40;0.40;;;8.90;99.90;;;;;;5012474;28;20422;-65
2022/05/31 04:14:53;;;;;;;0.40;0.40;;;9.00;99.90;;;;;;5012243;28;20504;-65
2022/05/31 04:17:41;;;;;;;0.40;0.40;;;9.00;99.90;;;;;;5012067;28;20450;-65
2022/05/31 04:20:30;;;;;;;0.40;0.40;;;9.10;99.90;;;;;;5012091;28;21204;-65
2022/05/31 04:26:24;;;;;;;0.40;0.40;;;9.30;99.90;;;;;;5016859;28;21021;-65
2022/05/31 04:29:14;;;;;;;0.40;0.40;;;9.30;99.90;;;;;;5017651;28;20422;-66
2022/05/31 04:32:02;;;;;;;0.40;0.40;;;9.40;99.90;;;;;;5019703;28;20977;-65
2022/05/31 04:34:50;;;;;;;0.40;0.40;;;9.50;99.90;;;;;;5018590;28;20441;-65
2022/05/31 04:37:38;;;;;;;0.40;0.40;;;9.50;99.90;;;;;;5018434;28;20421;-66
2022/05/31 04:40:26;;;;;;;0.40;0.40;;;9.60;99.90;;;;;;5018616;28;20528;-66
2022/05/31 04:43:15;;;;;;;0.40;0.40;;;9.60;99.90;;;;;;5018009;28;20426;-66
2022/05/31 04:46:13;;;;;;;0.40;0.40;;;9.70;99.90;;;;;;5017740;28;20422;-66
2022/05/31 04:49:02;;;;;;;0.40;0.40;;;9.80;99.90;;;;;;5018123;28;20429;-65
2022/05/31 04:51:50;;;;;;;0.40;0.40;;;9.80;99.90;;;;;;5018097;28;20422;-66
2022/05/31 04:54:38;;;;;;;0.40;0.40;;;9.90;99.90;;;;;;5018101;28;20473;-66
2022/05/31 04:57:26;;;;;;;0.40;0.40;;;9.90;99.90;;;;;;5017315;28;20841;-66
2022/05/31 05:00:15;;;;;;;0.40;0.40;;;9.90;99.90;;;;;;5017776;28;20425;-66
2022/05/31 05:03:05;;;;;;;0.40;0.40;;;10.00;99.90;;;;;;5017668;28;20426;-65
2022/05/31 05:05:53;;;;;;;0.40;0.40;;;10.00;99.90;;;;;;5016926;28;20434;-66
2022/05/31 05:08:42;;;;;;;0.40;0.40;;;10.10;99.90;;;;;;5017137;28;20838;-66
2022/05/31 05:11:32;;;;;;;0.40;0.40;;;10.10;99.90;;;;;;5017343;28;20429;-65
2022/05/31 05:14:20;;;;;;;0.40;0.40;;;10.10;99.90;;;;;;5016530;28;20457;-65
2022/05/31 05:17:08;;;;;;;0.40;0.40;;;10.20;99.90;;;;;;5017302;28;20434;-65
2022/05/31 05:19:57;;;;;;;0.40;0.40;;;10.20;99.90;;;;;;5017451;28;20852;-65
2022/05/31 05:22:45;;;;;;;0.40;0.40;;;10.30;99.90;;;;;;5017386;28;20458;-66
2022/05/31 05:25:34;;;;;;;0.40;0.40;;;10.40;99.90;;;;;;5017242;28;20438;-66
2022/05/31 05:31:40;;;;;;;0.40;0.40;;;10.60;99.90;;;;;;4999724;28;20445;-66
2022/05/31 05:34:28;;;;;;;0.40;0.40;;;10.70;99.90;;;;;;5017750;28;20446;-65
2022/05/31 05:37:17;;;;;;;0.40;0.40;;;10.80;99.90;;;;;;5014004;28;20517;-66
2022/05/31 05:40:07;;;;;;;0.40;0.40;;;10.90;99.90;;;;;;5012107;28;20430;-65
2022/05/31 05:42:55;;;;;;;0.40;0.40;;;11.00;99.90;;;;;;5021199;28;20465;-65
2022/05/31 05:45:43;;;;;;;0.40;0.40;;;11.00;99.90;;;;;;5018914;28;20450;-66
2022/05/31 05:48:31;;;;;;;0.40;0.40;;;11.00;99.90;;;;;;5020211;28;20422;-65
2022/05/31 05:51:21;;;;;;;0.40;0.40;;;11.00;99.90;;;;;;5017256;28;20602;-65
2022/05/31 05:54:10;;;;;;;0.40;0.40;;;11.10;99.90;;;;;;5016934;28;20511;-65
2022/05/31 05:56:59;;;;;;;0.40;0.40;;;11.10;99.90;;;;;;4997811;28;20473;-65
2022/05/31 05:59:47;;;;;;;0.40;0.40;;;11.20;99.90;;;;;;4997277;28;20431;-66
2022/05/31 06:02:37;;;;;;;0.40;0.40;;;11.20;99.90;;;;;;4997295;28;20467;-66
2022/05/31 06:05:41;;;;;;;0.40;0.40;;;11.30;99.90;;;;;;4998887;28;20506;-65
2022/05/31 06:08:33;;;;;;;0.40;0.40;;;11.30;99.90;;;;;;4998033;28;20434;-66
2022/05/31 06:11:25;;;;;;;0.40;0.40;;;11.40;99.90;;;;;;4996744;28;20423;-66
2022/05/31 06:14:17;;;;;;;0.40;0.40;;;11.50;99.90;;;;;;4996297;28;20806;-65
2022/05/31 06:17:12;;;;;;;0.40;0.40;;;11.60;99.90;;;;;;4997749;28;21112;-66
2022/05/31 06:20:06;;;;;;;0.40;0.40;;;11.60;99.90;;;;;;4997502;28;20423;-66
2022/05/31 06:22:57;;;;;;;0.40;0.40;;;11.70;99.90;;;;;;4996265;28;20459;-66
2022/05/31 06:25:45;;;;;;;0.40;0.40;;;11.80;99.90;;;;;;4997025;28;20451;-66
2022/05/31 06:28:34;;;;;;;0.40;0.40;;;11.90;99.90;;;;;;4997017;28;20813;-66
2022/05/31 06:31:22;;;;;;;0.40;0.40;;;12.00;99.90;;;;;;4996920;28;20844;-65
2022/05/31 06:34:10;;;;;;;0.40;0.40;;;12.10;99.90;;;;;;4996737;28;20892;-66
2022/05/31 06:37:03;;;;;;;0.40;0.40;;;12.10;99.90;;;;;;4996172;28;20482;-66
2022/05/31 06:39:52;;;;;;;0.40;0.40;;;12.20;99.90;;;;;;4996390;28;20426;-66
2022/05/31 06:42:40;;;;;;;0.40;0.40;;;12.30;99.90;;;;;;5013278;28;20482;-66
2022/05/31 06:45:29;;;;;;;0.40;0.40;;;12.40;99.90;;;;;;5015316;28;20449;-67
2022/05/31 06:48:17;;;;;;;0.40;0.40;;;12.50;99.90;;;;;;5014896;28;20433;-67
2022/05/31 06:51:06;;;;;;;0.40;0.40;;;12.50;99.90;;;;;;5018327;28;20426;-66
2022/05/31 06:57:02;;;;;;;0.40;0.40;;;12.80;99.90;;;;;;5023920;28;21034;-66
2022/05/31 06:59:50;;;;;;;0.40;0.40;;;13.00;99.90;;;;;;5014844;28;20476;-66
2022/05/31 07:02:40;;;;;;;0.40;0.40;;;13.10;99.90;;;;;;5014987;28;20997;-67
2022/05/31 07:05:28;;;;;;;0.40;0.40;;;13.20;99.90;;;;;;5015263;28;20507;-66
2022/05/31 07:08:16;;;;;;;0.40;0.40;;;13.30;99.90;;;;;;5016232;28;20453;-67
2022/05/31 07:11:07;;;;;;;0.40;0.40;;;13.30;99.90;;;;;;5014945;28;20441;-66
2022/05/31 07:13:55;;;;;;;0.40;0.40;;;13.20;99.90;;;;;;5015014;28;20520;-66
2022/05/31 07:16:43;;;;;;;0.40;0.40;;;13.30;99.90;;;;;;5014889;28;20422;-66
2022/05/31 07:19:33;;;;;;;0.40;0.40;;;13.40;99.90;;;;;;5015078;28;20430;-66
2022/05/31 07:22:41;;;;;;;0.40;0.40;;;13.70;99.90;;;;;;5014157;28;20454;-67
2022/05/31 07:25:29;;;;;;;0.40;0.40;;;14.10;99.90;;;;;;5014137;28;20481;-67
2022/05/31 07:28:17;;;;;;;0.40;0.40;;;14.40;99.90;;;;;;5014329;28;20433;-67
2022/05/31 07:31:07;;;;;;;1.07;1.07;;;14.70;99.90;;;;;;5008811;28;20748;-66
2022/05/31 07:33:56;;;;;;;0.40;0.40;;;14.80;99.90;;;;;;5014229;28;20477;-66
2022/05/31 07:36:45;;;;;;;0.40;0.40;;;14.90;99.90;;;;;;5014007;28;20879;-67
2022/05/31 07:39:34;;;;;;;0.40;0.40;;;15.10;99.90;;;;;;5013086;28;20265;-67
2022/05/31 07:42:22;;;;;;;1.07;1.07;;;15.10;99.90;;;;;;4998103;28;21001;-67
2022/05/31 07:45:12;;;;;;;0.40;0.40;;;15.10;99.90;;;;;;5014997;28;20449;-67
2022/05/31 07:48:00;;;;;;;0.40;0.40;;;14.90;99.90;;;;;;5013607;28;20465;-67
2022/05/31 07:50:50;;;;;;;0.40;0.40;;;14.80;99.90;;;;;;5013651;28;21239;-67
2022/05/31 07:53:40;;;;;;;0.40;0.40;;;14.70;99.90;;;;;;5014361;28;20786;-66
2022/05/31 07:56:28;;;;;;;0.40;0.40;;;14.70;99.90;;;;;;5014385;28;20508;-66
2022/05/31 07:59:17;;;;;;;0.40;0.40;;;14.60;99.90;;;;;;5014176;28;20198;-66
2022/05/31 08:02:05;;;;;;;0.40;0.40;;;14.60;99.90;;;;;;5014178;28;20974;-66
2022/05/31 08:04:53;;;;;;;0.40;0.40;;;14.60;99.90;;;;;;5011122;28;20870;-67
2022/05/31 08:07:42;;;;;;;0.60;0.60;;;14.60;99.90;;;;;;5011506;28;20520;-67
2022/05/31 08:10:31;;;;;;;0.40;0.40;;;14.50;99.90;;;;;;5014724;28;20206;-67
2022/05/31 08:13:19;;;;;;;0.40;0.40;;;14.60;99.90;;;;;;5009182;28;20769;-66
2022/05/31 08:16:09;;;;;;;0.40;0.40;;;14.50;99.90;;;;;;5003138;28;20203;-66
2022/05/31 08:18:58;;;;;;;0.40;0.40;;;14.50;99.90;;;;;;5014068;28;20492;-67
2022/05/31 08:21:47;;;;;;;0.40;0.40;;;14.50;99.90;;;;;;5014904;28;20599;-67
2022/05/31 08:24:35;;;;;;;0.40;0.40;;;14.60;99.90;;;;;;5016245;28;20768;-67
2022/05/31 08:27:34;;;;;;;0.40;0.40;;;14.60;99.90;;;;;;5020653;28;20430;-67
2022/05/31 08:30:22;;;;;;;0.40;0.40;;;14.70;99.90;;;;;;5023188;28;20209;-67
2022/05/31 08:33:11;;;;;;;0.40;0.40;;;14.90;99.90;;;;;;5023798;28;20233;-67
2022/05/31 08:35:59;;;;;;;0.40;0.40;;;15.00;99.90;;;;;;5025079;28;20434;-67
2022/05/31 08:38:51;;;;;;;0.40;0.40;;;15.20;99.90;;;;;;5019112;28;20203;-67
2022/05/31 08:41:45;;;;;;;0.40;0.40;;;15.30;99.90;;;;;;5017305;28;20203;-67
2022/05/31 08:44:47;;;;;;;0.80;0.80;;;15.50;99.90;;;;;;5016058;28;20457;-67
2022/05/31 08:47:45;;;;;;;0.40;0.40;;;15.80;99.90;;;;;;5016680;28;20802;-67
2022/05/31 08:56:56;;;;;;;0.40;0.40;;;16.00;99.90;;;;;;5015803;28;20245;-66
2022/05/31 08:57:04;;;;;;;0.40;0.40;;;16.00;99.90;;;;;;5014135;28;20202;-66
2022/05/31 08:59:59;;;;;;;0.40;0.40;;;16.10;99.90;;;;;;5013903;28;20257;-67
2022/05/31 09:02:52;;;;;;;0.40;0.40;;;16.10;99.90;;;;;;5013865;28;20211;-66
2022/05/31 09:05:46;;;;;;;0.40;0.40;;;16.10;99.90;;;;;;5013089;28;20227;-67
2022/05/31 09:08:39;;;;;;;0.40;0.40;;;16.20;99.90;;;;;;5013475;28;20253;-66
2022/05/31 09:11:31;;;;;;;0.40;0.40;;;16.20;99.90;;;;;;5013182;28;20671;-67
2022/05/31 09:14:24;;;;;;;0.40;0.40;;;16.50;99.90;;;;;;5015894;28;20296;-67
2022/05/31 09:17:26;;;;;;;0.50;0.50;;;16.60;99.90;;;;;;5016809;28;20202;-66
2022/05/31 09:20:18;;;;;;;0.40;0.40;;;16.80;99.90;;;;;;5015837;28;20226;-66
2022/05/31 09:23:06;;;;;;;0.40;0.40;;;16.80;99.90;;;;;;5012601;28;20398;-67
2022/05/31 09:26:03;;;;;;;0.40;0.40;;;16.80;99.90;;;;;;5009017;28;20237;-66
2022/05/31 09:28:58;;;;;;;0.40;0.40;;;16.80;99.90;;;;;;5027390;28;20238;-66
2022/05/31 09:31:56;;;;;;;0.40;0.40;;;17.00;99.90;;;;;;5034606;28;20199;-67
2022/05/31 09:35:09;;;;;;;0.40;0.40;;;17.20;99.90;;;;;;5030744;28;20222;-70
2022/05/31 09:38:12;;;;;;;0.40;0.40;;;17.50;99.90;;;;;;5035314;28;20213;-67
2022/05/31 09:41:06;;;;;;;0.40;0.40;;;17.90;99.90;;;;;;5029372;28;20233;-66
2022/05/31 09:44:02;;;;;;;0.40;0.40;;;18.00;99.90;;;;;;5019733;28;20225;-67
2022/05/31 09:46:56;;;;;;;0.40;0.40;;;18.00;99.90;;;;;;5016901;28;20198;-67
2022/05/31 09:49:50;;;;;;;0.40;0.40;;;18.30;99.90;;;;;;5016485;28;20226;-67
2022/05/31 09:52:43;;;;;;;0.40;0.40;;;18.30;99.90;;;;;;5015461;28;20233;-70
2022/05/31 09:58:42;;;;;;;0.40;0.40;;;18.70;99.90;;;;;;4997261;28;20269;-66
2022/05/31 10:01:31;;;;;;;0.45;0.40;;;18.60;98.60;;;;;;4997775;28;20231;-67
2022/05/31 10:04:26;;;;;;;0.40;0.40;;;18.50;98.40;;;;;;4998132;28;20219;-69
2022/05/31 10:07:33;;;;;;;0.40;0.40;;;18.40;98.70;;;;;;4997755;28;20687;-67
2022/05/31 10:10:28;;;;;;;0.40;0.40;;;18.40;99.90;;;;;;4997676;28;20199;-66
2022/05/31 10:13:36;;;;;;;0.40;0.40;;;18.40;99.40;;;;;;5017023;28;20203;-67
2022/05/31 10:16:27;;;;;;;0.40;0.40;;;18.50;99.40;;;;;;5011538;28;20268;-67
2022/05/31 10:19:23;;;;;;;0.40;0.40;;;18.60;99.50;;;;;;5018743;28;20282;-66
2022/05/31 10:22:20;;;;;;;0.40;0.40;;;18.40;97.70;;;;;;5021216;28;20210;-66
2022/05/31 10:25:22;;;;;;;0.40;0.40;;;18.30;98.10;;;;;;5025233;28;20222;-67
2022/05/31 10:28:29;;;;;;;0.40;0.40;;;18.20;99.00;;;;;;5021144;28;20202;-67
2022/05/31 10:31:23;;;;;;;0.40;0.40;;;18.30;97.60;;;;;;5015518;28;20199;-67
2022/05/31 10:34:36;;;;;;;0.40;0.40;;;18.20;97.90;;;;;;5017875;28;20226;-66
2022/05/31 10:37:28;;;;;;;0.40;0.40;;;18.30;96.90;;;;;;5018696;28;20198;-67
2022/05/31 10:40:19;;;;;;;0.40;0.40;;;18.50;96.90;;;;;;5024790;28;20698;-69
2022/05/31 10:43:24;;;;;;;0.40;0.40;;;18.80;97.20;;;;;;5017065;28;20203;-67
2022/05/31 10:46:19;;;;;;;0.40;0.40;;;19.20;95.60;;;;;;5016638;28;20213;-67
2022/05/31 10:49:15;;;;;;;0.40;0.40;;;19.20;95.00;;;;;;5025912;28;20207;-67
2022/05/31 10:52:13;;;;;;;0.40;0.30;;;19.10;95.50;;;;;;5024203;28;20202;-67
2022/05/31 10:55:29;;;;;;;0.40;0.40;;;19.10;95.40;;;;;;5023180;28;20222;-67
2022/05/31 10:58:39;;;;;;;0.40;0.40;;;19.00;95.30;;;;;;5016807;28;20202;-66
2022/05/31 11:01:51;;;;;;;0.40;0.30;;;19.40;94.60;;;;;;5016144;28;20683;-67
2022/05/31 11:04:51;;;;;;;0.40;0.40;;;20.10;94.50;;;;;;5016321;28;20232;-69
2022/05/31 11:11:28;;;;;;;0.40;0.40;;;20.80;93.00;;;;;;5015550;28;20203;-67
2022/05/31 11:14:45;;;;;;;0.40;0.40;;;20.80;91.50;;;;;;5015098;28;20215;-67
2022/05/31 11:17:53;;;;;;;0.40;0.40;;;20.20;92.20;;;;;;5012558;28;20210;-67
2022/05/31 11:20:49;;;;;;;0.40;0.40;;;19.70;91.80;;;;;;5014381;28;20565;-67
2022/05/31 11:24:05;;;;;;;0.40;0.40;;;19.50;92.40;;;;;;5016750;28;20218;-67
2022/05/31 11:27:03;;;;;;;0.40;0.40;;;19.70;92.30;;;;;;5011439;28;20226;-67
2022/05/31 11:30:04;;;;;;;0.40;0.40;;;20.00;92.10;;;;;;5015708;28;20237;-67
2022/05/31 11:33:12;;;;;;;0.40;0.40;;;20.50;92.70;;;;;;5017823;28;20215;-67
2022/05/31 11:36:10;;;;;;;0.40;0.40;;;20.80;91.00;;;;;;5016151;28;20194;-67
2022/05/31 11:39:16;;;;;;;0.40;0.40;;;21.00;91.70;;;;;;5014167;28;20704;-67
2022/05/31 11:42:18;;;;;;;0.40;0.40;;;21.00;89.10;;;;;;5014340;28;20238;-67
2022/05/31 11:45:19;;;;;;;0.40;0.40;;;20.90;88.40;;;;;;5017667;28;20245;-67
2022/05/31 11:48:33;;;;;;;0.50;0.50;;;21.10;89.60;;;;;;5019052;28;20201;-67
2022/05/31 11:51:46;;;;;;;0.40;0.40;;;21.50;90.20;;;;;;5016374;28;20253;-67
2022/05/31 11:55:25;;;;;;;0.40;0.40;;;21.70;86.70;;;;;;5018506;28;20840;-66
2022/05/31 11:58:24;;;;;;;0.40;0.40;;;21.90;86.30;;;;;;5015841;28;20249;-67
2022/05/31 12:01:18;;;;;;;0.40;0.40;;;21.90;87.10;;;;;;5013602;28;20619;-69
2022/05/31 12:04:14;;;;;;;0.40;0.40;;;22.10;83.40;;;;;;5013579;28;20262;-68
2022/05/31 12:07:09;;;;;;;0.40;0.30;;;22.20;83.60;;;;;;5014362;28;20258;-68
2022/05/31 12:10:01;;;;;;;0.40;0.40;;;22.30;82.70;;;;;;5009299;28;20206;-67
2022/05/31 12:12:51;;;;;;;0.40;0.40;;;22.50;81.80;;;;;;5012047;28;20202;-66
2022/05/31 12:15:45;;;;;;;0.40;0.40;;;22.50;80.20;;;;;;5016065;28;20242;-67
2022/05/31 12:18:41;;;;;;;0.40;0.40;;;22.60;80.80;;;;;;5016485;28;20218;-66
2022/05/31 12:21:37;;;;;;;0.40;0.40;;;22.80;81.20;;;;;;5014154;28;20615;-70
2022/05/31 12:24:29;;;;;;;0.82;0.82;;;23.10;80.20;;;;;;5007116;28;20234;-66
2022/05/31 12:27:23;;;;;;;0.40;0.30;;;23.00;76.60;;;;;;5015488;28;20195;-67
2022/05/31 12:30:19;;;;;;;0.40;0.40;;;22.70;77.70;;;;;;5013662;28;20206;-67
2022/05/31 12:33:31;;;;;;;0.40;0.40;;;22.60;77.60;;;;;;5015124;28;20194;-66
2022/05/31 12:36:21;;;;;;;0.40;0.40;;;22.30;79.90;;;;;;5011256;28;20683;-68
2022/05/31 12:39:24;;;;;;;0.40;0.40;;;22.20;79.60;;;;;;5016222;28;20206;-67
2022/05/31 12:42:35;;;;;;;0.40;0.40;;;23.20;76.30;;;;;;5013964;28;20207;-66
2022/05/31 12:45:38;;;;;;;0.40;0.40;;;26.20;76.30;;;;;;5009264;28;20233;-67
2022/05/31 12:48:28;;;;;;;0.40;0.40;;;29.20;65.80;;;;;;5014525;28;20199;-67
2022/05/31 12:51:24;;;;;;;0.40;0.40;;;32.20;58.70;;;;;;5016418;28;20671;-68
2022/05/31 12:54:18;;;;;;;0.40;0.40;;;35.00;51.70;;;;;;5015187;28;20260;-68
2022/05/31 12:57:21;;;;;;;0.40;0.40;;;36.20;45.80;;;;;;5014112;28;20279;-67
2022/05/31 13:00:29;;;;;;;0.30;0.30;;;34.40;45.00;;;;;;5015578;28;20210;-67
2022/05/31 13:03:55;;;;;;;0.40;0.40;;;33.00;47.00;;;;;;5017429;28;20191;-67
2022/05/31 13:09:40;;;;;;;0.40;0.40;;;27.80;50.60;;;;;;5110870;27;20534;-67
2022/05/31 13:22:09;;;;;;;0.40;0.40;;;22.20;59.80;;;;;;5073492;28;20196;-66
2022/05/31 13:25:04;;;;;;;0.40;0.40;;;21.90;62.20;;;;;;5076247;28;20273;-66
2022/05/31 13:27:55;;;;;;;0.40;0.40;;;21.80;63.60;;;;;;5071650;28;20219;-66
2022/05/31 13:30:44;;;;;;;0.40;0.40;;;22.30;64.50;;;;;;5071015;28;20205;-68
2022/05/31 13:33:32;;;;;;;0.40;0.40;;;22.90;63.80;;;;;;5071461;28;20374;-67
2022/05/31 13:36:24;;;;;;;0.40;0.40;;;23.10;64.40;;;;;;5071176;28;20218;-66
2022/05/31 13:39:17;;;;;;;0.40;0.40;;;23.20;63.70;;;;;;5070520;28;20233;-68
2022/05/31 13:42:16;;;;;;;0.40;0.40;;;22.80;60.80;;;;;;5071008;28;20197;-68
2022/05/31 13:45:07;;;;;;;1.05;0.60;;;21.80;62.60;;;;;;5070930;28;20759;-68
2022/05/31 13:47:59;;;;;;;0.40;0.40;;;21.40;63.60;;;;;;5070159;28;20624;-68
2022/05/31 13:50:57;;;;;;;0.40;0.40;;;20.80;65.40;;;;;;5068789;28;20263;-68
2022/05/31 13:53:45;;;;;;;0.40;0.40;;;20.30;67.10;;;;;;5079855;28;20566;-68
2022/05/31 13:56:35;;;;;;;0.40;0.40;;;20.30;67.50;;;;;;5080811;28;20607;-68
2022/05/31 13:59:33;;;;;;;0.40;0.40;;;20.10;67.20;;;;;;5071277;28;20250;-68
2022/05/31 14:02:23;;;;;;;0.40;0.40;;;19.80;68.70;;;;;;5071833;28;20261;-68
2022/05/31 14:05:11;;;;;;;0.70;0.50;;;19.60;70.10;;;;;;5082086;28;20271;-68
2022/05/31 14:08:01;;;;;;;0.50;0.50;;;19.50;69.50;;;;;;5074419;28;20228;-68
2022/05/31 14:10:50;;;;;;;0.50;0.50;;;19.50;69.50;;;;;;5066553;28;20204;-68
2022/05/31 14:13:39;;;;;;;0.40;0.40;;;19.60;69.50;;;;;;5097704;28;20204;-68
2022/05/31 14:16:36;;;;;;;0.40;0.40;;;20.10;70.70;;;;;;5105570;28;20203;-68
2022/05/31 14:19:27;;;;;;;0.40;0.40;;;23.30;67.60;;;;;;5095396;28;20291;-67
2022/05/31 14:22:21;;;;;;;0.40;0.40;;;27.40;60.70;;;;;;5095702;28;20200;-67
2022/05/31 14:25:10;;;;;;;0.85;0.85;;;31.00;55.70;;;;;;5092689;28;20224;-68
2022/05/31 14:27:58;;;;;;;0.40;0.40;;;33.50;51.30;;;;;;5097381;28;20196;-67
2022/05/31 14:30:51;;;;;;;0.40;0.40;;;33.70;48.60;;;;;;5091930;28;20200;-68
2022/05/31 14:33:41;;;;;;;0.40;0.40;;;34.50;47.50;;;;;;5091727;28;20196;-68
2022/05/31 14:36:36;;;;;;;0.40;0.40;;;36.50;44.20;;;;;;5090527;28;20200;-68
2022/05/31 14:39:27;;;;;;;0.40;0.40;;;37.00;42.40;;;;;;5092489;28;20198;-68
2022/05/31 14:42:16;;;;;;;0.40;0.40;;;37.30;40.80;;;;;;5071573;28;20262;-68
2022/05/31 14:45:10;;;;;;;0.40;0.40;;;37.20;40.30;;;;;;5073452;28;20220;-68
2022/05/31 14:48:18;;;;;;;0.40;0.40;;;37.80;39.40;;;;;;5072753;28;20205;-68
2022/05/31 14:51:13;;;;;;;0.40;0.40;;;39.30;37.90;;;;;;5072236;28;20298;-67
2022/05/31 14:54:02;;;;;;;0.50;0.50;;;39.60;38.10;;;;;;5072300;28;20212;-68
2022/05/31 14:56:51;;;;;;;0.40;0.40;;;39.40;37.10;;;;;;5071994;28;20196;-68
2022/05/31 14:59:40;;;;;;;0.40;0.40;;;39.60;37.10;;;;;;5054364;22;20237;-67
2022/05/31 15:02:28;;;;;;;0.40;0.40;;;40.50;37.40;;;;;;5030913;28;20696;-67
2022/05/31 15:05:23;;;;;;;0.40;0.40;;;40.80;36.70;;;;;;5028354;28;20194;-67
2022/05/31 15:08:29;;;;;;;0.40;0.40;;;41.40;35.40;;;;;;5024681;28;20319;-67
2022/05/31 15:20:51;;;;;;;0.40;0.40;;;40.50;35.00;;;;;;5039207;28;20201;-67
2022/05/31 15:23:41;;;;;;;0.40;0.40;;;39.90;34.70;;;;;;5052785;28;20201;-67
2022/05/31 15:26:30;;;;;;;0.40;0.40;;;38.00;35.90;;;;;;5037946;28;20209;-67
2022/05/31 15:29:19;;;;;;;0.40;0.40;;;37.40;37.00;;;;;;5032291;28;20230;-67
2022/05/31 15:32:08;;;;;;;0.40;0.40;;;38.30;36.80;;;;;;5031621;28;20229;-67
2022/05/31 15:34:56;;;;;;;0.40;0.40;;;39.20;36.10;;;;;;5032311;28;20252;-67
2022/05/31 15:37:45;;;;;;;0.40;0.40;;;39.10;35.00;;;;;;5031882;28;20697;-67
2022/05/31 15:40:38;;;;;;;0.40;0.40;;;38.70;35.30;;;;;;5032400;28;20226;-67
2022/05/31 15:46:35;;;;;;;0.40;0.40;;;39.70;34.50;;;;;;5032131;28;20198;-67
2022/05/31 15:49:23;;;;;;;0.40;0.40;;;40.10;34.70;;;;;;5030718;28;20729;-67
2022/05/31 15:52:15;;;;;;;0.40;0.40;;;40.60;35.10;;;;;;5031790;28;20229;-67
2022/05/31 15:55:08;;;;;;;0.40;0.40;;;41.20;34.30;;;;;;5032016;28;20210;-67
2022/05/31 15:58:01;;;;;;;0.40;0.40;;;41.40;33.50;;;;;;5031394;28;20315;-67